createdAt,value
2018-04-22T00:00:41.277Z,4.73
2018-04-22T00:03:09.708Z,4.13
2018-04-22T00:05:38.172Z,9.43
2018-04-22T00:08:06.589Z,4.83
2018-04-22T00:10:35.005Z,4.13
2018-04-22T00:13:03.469Z,7.33
2018-04-22T00:15:31.885Z,4.00
2018-04-22T00:18:00.300Z,4.07
2018-04-22T00:20:28.765Z,4.60
2018-04-22T00:22:57.180Z,4.27
2018-04-22T00:25:25.649Z,3.70
2018-04-22T00:27:54.126Z,3.83
2018-04-22T00:30:22.540Z,4.80
2018-04-22T00:32:50.963Z,5.57
2018-04-22T00:35:19.429Z,5.70
2018-04-22T00:37:47.853Z,5.20
2018-04-22T00:40:16.282Z,6.53
2018-04-22T00:42:44.742Z,4.07
2018-04-22T00:45:13.153Z,5.90
2018-04-22T00:47:41.575Z,5.47
2018-04-22T00:50:10.044Z,3.07
2018-04-22T00:52:38.464Z,3.90
2018-04-22T00:55:06.913Z,8.53
2018-04-22T00:57:35.372Z,4.30
2018-04-22T01:00:03.833Z,5.53
2018-04-22T01:02:32.264Z,4.80
2018-04-22T01:05:00.735Z,3.80
2018-04-22T01:07:29.152Z,4.97
2018-04-22T01:09:57.569Z,5.80
2018-04-22T01:12:26.041Z,6.07
2018-04-22T01:14:54.465Z,5.73
2018-04-22T01:17:22.889Z,6.37
2018-04-22T01:19:51.377Z,8.17
2018-04-22T01:22:19.788Z,5.23
2018-04-22T01:24:48.209Z,8.80
2018-04-22T01:27:16.673Z,4.47
2018-04-22T01:29:45.102Z,5.83
2018-04-22T01:32:13.541Z,5.13
2018-04-22T01:34:42.034Z,4.27
2018-04-22T01:37:10.462Z,4.70
2018-04-22T01:39:38.888Z,9.17
2018-04-22T01:42:07.347Z,4.77
2018-04-22T01:44:36.257Z,6.60
2018-04-22T01:47:04.685Z,7.67
2018-04-22T01:49:33.167Z,5.20
2018-04-22T01:52:01.597Z,5.20
2018-04-22T01:54:30.022Z,6.87
2018-04-22T01:56:58.493Z,5.37
2018-04-22T01:59:26.920Z,7.40
2018-04-22T02:01:55.337Z,5.50
2018-04-22T02:04:23.803Z,3.63
2018-04-22T02:06:52.234Z,5.73
2018-04-22T02:09:20.672Z,5.10
2018-04-22T02:11:49.145Z,3.70
2018-04-22T02:14:17.560Z,3.90
2018-04-22T02:16:45.985Z,5.40
2018-04-22T02:19:14.466Z,7.20
2018-04-22T02:21:42.891Z,8.37
2018-04-22T02:24:11.304Z,7.43
2018-04-22T02:26:39.791Z,4.90
2018-04-22T02:29:08.215Z,4.30
2018-04-22T02:31:36.652Z,4.60
2018-04-22T02:34:05.145Z,4.70
2018-04-22T02:36:33.555Z,6.53
2018-04-22T02:39:01.992Z,5.13
2018-04-22T02:41:30.489Z,5.70
2018-04-22T02:43:58.910Z,5.43
2018-04-22T02:46:27.317Z,3.73
2018-04-22T02:48:55.816Z,5.33
2018-04-22T02:51:24.255Z,5.37
2018-04-22T02:53:52.672Z,9.30
2018-04-22T02:56:21.164Z,5.70
2018-04-22T02:58:49.583Z,6.83
2018-04-22T03:01:18.013Z,4.83
2018-04-22T03:03:46.492Z,7.73
2018-04-22T03:06:14.930Z,4.13
2018-04-22T03:08:43.348Z,4.50
2018-04-22T03:11:11.804Z,5.73
2018-04-22T03:13:40.218Z,4.80
2018-04-22T03:16:08.632Z,6.40
2018-04-22T03:18:37.104Z,3.57
2018-04-22T03:21:05.525Z,5.70
2018-04-22T03:23:33.948Z,6.20
2018-04-22T03:26:02.412Z,6.13
2018-04-22T03:28:30.845Z,4.57
2018-04-22T03:30:59.269Z,5.47
2018-04-22T03:33:27.732Z,5.20
2018-04-22T03:35:56.156Z,7.17
2018-04-22T03:38:24.585Z,6.15
2018-04-22T03:40:53.060Z,7.47
2018-04-22T03:43:21.484Z,5.73
2018-04-22T03:45:49.911Z,7.57
2018-04-22T03:48:18.407Z,6.67
2018-04-22T03:50:46.821Z,5.13
2018-04-22T03:53:15.244Z,6.40
2018-04-22T03:55:43.713Z,8.03
2018-04-22T03:58:12.131Z,6.20
2018-04-22T04:00:40.561Z,8.37
2018-04-22T04:03:09.029Z,6.13
2018-04-22T04:05:37.445Z,5.07
2018-04-22T04:08:05.868Z,5.47
2018-04-22T04:10:34.330Z,9.20
2018-04-22T04:13:02.754Z,7.53
2018-04-22T04:15:31.174Z,5.83
2018-04-22T04:21:23.485Z,6.53
2018-04-22T04:27:25.480Z,7.00
2018-04-22T04:29:53.949Z,5.57
2018-04-22T04:32:22.410Z,4.53
2018-04-22T04:34:50.829Z,9.50
2018-04-22T04:37:19.312Z,6.73
2018-04-22T04:39:47.733Z,7.50
2018-04-22T04:42:16.149Z,5.83
2018-04-22T04:44:44.623Z,7.07
2018-04-22T04:47:13.055Z,5.27
2018-04-22T04:49:41.478Z,6.60
2018-04-22T04:52:09.928Z,6.23
2018-04-22T04:54:38.368Z,6.73
2018-04-22T04:57:06.792Z,7.73
2018-04-22T04:59:35.268Z,6.33
2018-04-22T05:02:03.725Z,6.33
2018-04-22T05:04:32.144Z,6.07
2018-04-22T05:07:00.616Z,8.03
2018-04-22T05:09:29.025Z,8.43
2018-04-22T05:11:57.444Z,9.17
2018-04-22T05:14:25.924Z,5.90
2018-04-22T05:16:54.345Z,7.30
2018-04-22T05:19:22.779Z,8.23
2018-04-22T05:21:51.237Z,8.80
2018-04-22T05:24:20.049Z,6.53
2018-04-22T05:26:48.469Z,8.23
2018-04-22T05:29:16.929Z,5.60
2018-04-22T05:31:45.351Z,5.27
2018-04-22T05:34:13.766Z,5.80
2018-04-22T05:36:42.233Z,7.10
2018-04-22T05:39:10.644Z,5.80
2018-04-22T05:41:39.066Z,6.00
2018-04-22T05:44:07.548Z,7.90
2018-04-22T05:46:35.972Z,6.60
2018-04-22T05:49:04.388Z,9.70
2018-04-22T05:51:32.844Z,8.47
2018-04-22T05:54:01.265Z,5.80
2018-04-22T05:56:29.676Z,8.70
2018-04-22T05:58:58.149Z,6.63
2018-04-22T06:01:26.569Z,5.43
2018-04-22T06:03:54.987Z,8.90
2018-04-22T06:06:23.462Z,7.20
2018-04-22T06:08:51.881Z,5.87
2018-04-22T06:11:20.345Z,6.40
2018-04-22T06:13:48.808Z,7.30
2018-04-22T06:16:17.249Z,8.77
2018-04-22T06:18:45.668Z,11.23
2018-04-22T06:21:14.128Z,6.90
2018-04-22T06:23:42.548Z,6.50
2018-04-22T06:26:10.980Z,6.43
2018-04-22T06:28:39.444Z,7.03
2018-04-22T06:31:07.879Z,7.53
2018-04-22T06:33:36.328Z,6.80
2018-04-22T06:36:04.817Z,8.70
2018-04-22T06:38:33.234Z,7.10
2018-04-22T06:41:01.644Z,9.73
2018-04-22T06:43:30.104Z,6.63
2018-04-22T06:45:58.530Z,8.03
2018-04-22T06:48:26.940Z,6.13
2018-04-22T06:50:55.408Z,7.57
2018-04-22T06:53:23.825Z,5.53
2018-04-22T06:55:52.260Z,7.40
2018-04-22T06:58:20.724Z,10.77
2018-04-22T07:00:49.155Z,7.43
2018-04-22T07:03:17.580Z,8.53
2018-04-22T07:05:46.064Z,7.40
2018-04-22T07:08:14.495Z,7.70
2018-04-22T07:10:43.232Z,7.20
2018-04-22T07:13:11.705Z,7.00
2018-04-22T07:15:40.154Z,8.03
2018-04-22T07:18:08.565Z,7.27
2018-04-22T07:20:37.046Z,6.30
2018-04-22T07:23:05.484Z,9.07
2018-04-22T07:25:33.914Z,9.60
2018-04-22T07:28:02.376Z,10.80
2018-04-22T07:30:30.796Z,7.73
2018-04-22T07:32:59.201Z,9.90
2018-04-22T07:35:27.662Z,8.67
2018-04-22T07:37:56.188Z,9.10
2018-04-22T07:40:24.633Z,11.47
2018-04-22T07:42:53.101Z,7.30
2018-04-22T07:45:21.518Z,8.03
2018-04-22T07:47:49.936Z,7.00
2018-04-22T07:50:18.389Z,11.00
2018-04-22T07:52:46.806Z,7.27
2018-04-22T07:55:15.229Z,10.53
2018-04-22T07:57:43.703Z,10.07
2018-04-22T08:00:12.356Z,10.20
2018-04-22T08:02:40.792Z,14.07
2018-04-22T08:05:09.303Z,10.53
2018-04-22T08:07:37.721Z,10.10
2018-04-22T08:10:06.189Z,9.63
2018-04-22T08:12:34.652Z,10.97
2018-04-22T08:15:03.093Z,13.30
2018-04-22T08:17:31.567Z,12.30
2018-04-22T08:20:00.105Z,10.80
2018-04-22T08:22:28.543Z,9.67
2018-04-22T08:24:57.077Z,9.77
2018-04-22T08:27:25.553Z,11.97
2018-04-22T08:29:54.000Z,9.73
2018-04-22T08:32:22.414Z,13.77
2018-04-22T08:34:50.890Z,10.33
2018-04-22T08:37:19.315Z,12.40
2018-04-22T08:39:47.742Z,11.23
2018-04-22T08:42:16.194Z,12.40
2018-04-22T08:44:44.616Z,14.77
2018-04-22T08:47:13.112Z,12.27
2018-04-22T08:49:41.564Z,11.43
2018-04-22T08:52:10.054Z,12.80
2018-04-22T08:54:38.472Z,11.17
2018-04-22T08:57:06.921Z,11.97
2018-04-22T08:59:35.347Z,11.80
2018-04-22T09:02:03.766Z,12.60
2018-04-22T09:04:32.556Z,12.67
2018-04-22T09:07:00.977Z,13.00
2018-04-22T09:09:29.402Z,14.50
2018-04-22T09:11:57.876Z,11.47
2018-04-22T09:14:26.302Z,15.07
2018-04-22T09:16:54.742Z,15.77
2018-04-22T09:19:23.219Z,12.67
2018-04-22T09:21:51.640Z,13.10
2018-04-22T09:24:20.072Z,12.30
2018-04-22T09:26:48.562Z,14.37
2018-04-22T09:29:17.025Z,15.73
2018-04-22T09:31:45.480Z,13.80
2018-04-22T09:34:13.929Z,13.73
2018-04-22T09:36:42.357Z,15.33
2018-04-22T09:39:10.818Z,13.33
2018-04-22T09:41:39.289Z,13.87
2018-04-22T09:44:07.707Z,15.17
2018-04-22T09:46:36.136Z,14.60
2018-04-22T09:49:04.613Z,13.87
2018-04-22T09:51:33.037Z,21.30
2018-04-22T09:54:01.489Z,15.27
2018-04-22T09:56:29.965Z,15.87
2018-04-22T09:58:58.389Z,16.10
2018-04-22T10:01:32.533Z,15.03
2018-04-22T10:04:00.973Z,16.07
2018-04-22T10:06:29.388Z,15.90
2018-04-22T10:08:57.856Z,16.10
2018-04-22T10:11:26.281Z,19.83
2018-04-22T10:13:54.697Z,29.33
2018-04-22T10:16:23.173Z,34.33
2018-04-22T10:18:51.598Z,23.50
2018-04-22T10:21:20.057Z,36.33
2018-04-22T10:23:48.558Z,31.57
2018-04-22T10:26:17.017Z,20.53
2018-04-22T10:28:45.444Z,25.47
2018-04-22T10:31:13.906Z,23.57
2018-04-22T10:33:42.340Z,20.50
2018-04-22T10:36:10.808Z,17.80
2018-04-22T10:38:39.277Z,19.83
2018-04-22T10:41:07.704Z,20.73
2018-04-22T10:43:36.129Z,17.80
2018-04-22T10:46:04.593Z,19.50
2018-04-22T10:48:33.014Z,17.57
2018-04-22T10:51:01.430Z,17.30
2018-04-22T10:53:29.925Z,16.53
2018-04-22T10:55:58.345Z,17.77
2018-04-22T10:58:26.780Z,18.67
2018-04-22T11:00:55.248Z,18.53
2018-04-22T11:03:23.672Z,29.93
2018-04-22T11:05:52.132Z,18.97
2018-04-22T11:08:20.600Z,18.13
2018-04-22T11:10:49.069Z,17.43
2018-04-22T11:13:17.501Z,15.97
2018-04-22T11:15:46.017Z,18.77
2018-04-22T11:18:14.439Z,19.73
2018-04-22T11:20:42.872Z,18.50
2018-04-22T11:23:11.340Z,22.20
2018-04-22T11:25:39.761Z,19.77
2018-04-22T11:28:08.199Z,23.87
2018-04-22T11:30:36.793Z,19.53
2018-04-22T11:33:05.216Z,17.70
2018-04-22T11:35:33.657Z,18.70
2018-04-22T11:38:02.164Z,18.60
2018-04-22T11:40:30.589Z,19.60
2018-04-22T11:42:59.032Z,19.50
2018-04-22T11:45:27.512Z,18.83
2018-04-22T11:47:55.929Z,20.97
2018-04-22T11:50:24.348Z,21.37
2018-04-22T11:52:52.816Z,22.87
2018-04-22T11:55:21.243Z,19.17
2018-04-22T11:57:49.672Z,19.37
2018-04-22T12:00:18.204Z,16.90
2018-04-22T12:02:46.656Z,17.60
2018-04-22T12:05:15.119Z,20.13
2018-04-22T12:07:43.593Z,17.12
2018-04-22T12:10:12.020Z,19.10
2018-04-22T12:12:40.454Z,18.20
2018-04-22T12:15:08.940Z,18.20
2018-04-22T12:17:37.372Z,17.67
2018-04-22T12:20:05.814Z,20.15
2018-04-22T12:22:34.284Z,16.55
2018-04-22T12:25:02.728Z,16.85
2018-04-22T12:27:31.180Z,17.52
2018-04-22T12:29:59.652Z,16.20
2018-04-22T12:32:28.087Z,20.55
2018-04-22T12:34:56.536Z,18.98
2018-04-22T12:37:25.017Z,18.12
2018-04-22T12:39:53.438Z,16.33
2018-04-22T12:42:21.880Z,15.82
2018-04-22T12:44:50.356Z,15.18
2018-04-22T12:47:18.797Z,18.67
2018-04-22T12:49:47.221Z,16.17
2018-04-22T12:52:15.704Z,17.48
2018-04-22T12:54:44.125Z,19.50
2018-04-22T12:57:12.554Z,14.82
2018-04-22T12:59:41.017Z,14.00
2018-04-22T13:02:09.440Z,15.15
2018-04-22T13:04:37.884Z,17.25
2018-04-22T13:07:06.364Z,17.92
2018-04-22T13:09:34.787Z,15.75
2018-04-22T13:12:03.233Z,14.27
2018-04-22T13:14:31.703Z,16.67
2018-04-22T13:17:00.128Z,13.75
2018-04-22T13:19:28.557Z,18.02
2018-04-22T13:21:57.016Z,15.13
2018-04-22T13:24:25.467Z,15.23
2018-04-22T13:26:53.905Z,14.40
2018-04-22T13:29:22.390Z,16.48
2018-04-22T13:31:51.348Z,16.30
2018-04-22T13:34:19.776Z,14.30
2018-04-22T13:36:48.240Z,13.00
2018-04-22T13:39:16.677Z,14.15
2018-04-22T13:41:45.112Z,16.92
2018-04-22T13:44:13.599Z,13.40
2018-04-22T13:46:42.113Z,14.60
2018-04-22T13:49:10.539Z,14.45
2018-04-22T13:51:39.019Z,19.00
2018-04-22T13:54:07.466Z,14.52
2018-04-22T13:56:35.902Z,15.18
2018-04-22T13:59:04.469Z,13.50
2018-04-22T14:01:32.909Z,12.73
2018-04-22T14:04:01.341Z,15.25
2018-04-22T14:06:29.944Z,14.63
2018-04-22T14:08:58.380Z,14.98
2018-04-22T14:11:26.810Z,13.02
2018-04-22T14:13:55.297Z,16.02
2018-04-22T14:16:23.753Z,11.25
2018-04-22T14:18:52.171Z,15.10
2018-04-22T14:21:20.651Z,13.45
2018-04-22T14:23:49.069Z,11.57
2018-04-22T14:26:17.496Z,13.05
2018-04-22T14:28:45.976Z,14.70
2018-04-22T14:31:14.404Z,17.60
2018-04-22T14:33:42.841Z,11.15
2018-04-22T14:36:11.360Z,16.23
2018-04-22T14:38:39.785Z,13.93
2018-04-22T14:41:08.209Z,16.73
2018-04-22T14:43:36.676Z,12.80
2018-04-22T14:46:13.928Z,10.88
2018-04-22T14:48:54.142Z,14.43
2018-04-22T14:51:22.557Z,14.02
2018-04-22T14:53:50.983Z,11.45
2018-04-22T14:56:19.453Z,11.30
2018-04-22T14:58:47.864Z,9.57
2018-04-22T15:01:16.282Z,14.02
2018-04-22T15:03:44.736Z,14.07
2018-04-22T15:06:13.173Z,13.48
2018-04-22T15:08:41.613Z,11.77
2018-04-22T15:11:10.076Z,11.85
2018-04-22T15:13:38.502Z,13.57
2018-04-22T15:16:06.938Z,11.18
2018-04-22T15:18:35.407Z,13.25
2018-04-22T15:21:03.922Z,10.70
2018-04-22T15:23:32.337Z,11.38
2018-04-22T15:26:00.784Z,9.73
2018-04-22T15:28:29.452Z,10.60
2018-04-22T15:30:58.146Z,14.77
2018-04-22T15:33:26.628Z,8.95
2018-04-22T15:35:55.149Z,14.30
2018-04-22T15:38:23.621Z,10.70
2018-04-22T15:40:52.307Z,10.00
2018-04-22T15:43:20.753Z,11.98
2018-04-22T15:45:49.174Z,12.30
2018-04-22T15:48:17.632Z,8.48
2018-04-22T15:50:46.043Z,9.45
2018-04-22T15:53:14.469Z,9.70
2018-04-22T15:55:42.995Z,12.60
2018-04-22T15:58:11.750Z,10.05
2018-04-22T16:00:40.441Z,11.77
2018-04-22T16:03:09.185Z,10.05
2018-04-22T16:05:37.644Z,9.13
2018-04-22T16:08:06.325Z,11.50
2018-04-22T16:10:34.848Z,9.13
2018-04-22T16:13:03.268Z,9.75
2018-04-22T16:15:31.864Z,8.02
2018-04-22T16:18:00.327Z,9.60
2018-04-22T16:20:28.736Z,9.23
2018-04-22T16:22:57.157Z,8.43
2018-04-22T16:25:25.612Z,11.15
2018-04-22T16:27:54.031Z,12.47
2018-04-22T16:30:22.448Z,9.23
2018-04-22T16:32:50.905Z,10.60
2018-04-22T16:35:19.373Z,14.23
2018-04-22T16:37:47.769Z,12.77
2018-04-22T16:40:16.229Z,12.98
2018-04-22T16:42:44.671Z,11.45
2018-04-22T16:45:13.088Z,9.73
2018-04-22T16:47:41.553Z,8.68
2018-04-22T16:50:09.980Z,11.10
2018-04-22T16:52:38.395Z,10.35
2018-04-22T16:55:06.870Z,9.48
2018-04-22T16:57:35.277Z,9.07
2018-04-22T17:00:03.740Z,11.95
2018-04-22T17:02:32.200Z,7.85
2018-04-22T17:05:00.621Z,12.52
2018-04-22T17:07:29.063Z,12.37
2018-04-22T17:09:57.544Z,11.40
2018-04-22T17:12:25.985Z,11.25
2018-04-22T17:14:54.462Z,7.53
2018-04-22T17:17:22.932Z,12.13
2018-04-22T17:19:51.348Z,16.52
2018-04-22T17:22:19.766Z,16.52
2018-04-22T17:24:48.241Z,23.10
2018-04-22T17:27:16.652Z,19.02
2018-04-22T17:29:45.064Z,14.90
2018-04-22T17:32:13.933Z,17.43
2018-04-22T17:34:42.351Z,20.50
2018-04-22T17:37:11.473Z,13.17
2018-04-22T17:39:39.938Z,9.23
2018-04-22T17:42:08.349Z,10.83
2018-04-22T17:44:36.761Z,16.23
2018-04-22T17:47:05.227Z,10.07
2018-04-22T17:49:33.647Z,10.50
2018-04-22T17:52:02.072Z,7.67
2018-04-22T17:54:30.534Z,9.03
2018-04-22T17:56:58.953Z,10.50
2018-04-22T17:59:27.359Z,7.73
2018-04-22T18:01:55.804Z,6.13
2018-04-22T18:04:24.208Z,12.73
2018-04-22T18:06:52.608Z,6.50
2018-04-22T18:09:21.073Z,6.43
2018-04-22T18:11:49.489Z,7.63
2018-04-22T18:14:17.896Z,6.27
2018-04-22T18:16:46.380Z,6.00
2018-04-22T18:19:14.796Z,5.70
2018-04-22T18:21:43.206Z,5.73
2018-04-22T18:24:11.671Z,6.67
2018-04-22T18:26:40.088Z,3.27
2018-04-22T18:29:08.493Z,3.90
2018-04-22T18:31:36.964Z,3.10
2018-04-22T18:34:05.389Z,3.70
2018-04-22T18:36:34.232Z,2.80
2018-04-22T18:39:02.676Z,4.43
2018-04-22T18:41:31.096Z,4.23
2018-04-22T18:43:59.496Z,4.93
2018-04-22T18:46:27.958Z,3.10
2018-04-22T18:48:56.372Z,7.80
2018-04-22T18:51:24.792Z,5.90
2018-04-22T18:53:53.257Z,5.30
2018-04-22T18:56:21.687Z,4.83
2018-04-22T18:58:50.100Z,12.73
2018-04-22T19:01:18.544Z,5.53
2018-04-22T19:03:46.949Z,3.93
2018-04-22T19:06:15.360Z,3.13
2018-04-22T19:08:43.820Z,3.80
2018-04-22T19:11:12.220Z,6.30
2018-04-22T19:13:40.627Z,4.37
2018-04-22T19:16:09.076Z,3.53
2018-04-22T19:18:37.489Z,2.67
2018-04-22T19:21:05.893Z,9.73
2018-04-22T19:23:34.348Z,2.53
2018-04-22T19:26:02.760Z,3.47
2018-04-22T19:31:05.797Z,3.73
2018-04-22T19:33:34.202Z,2.10
2018-04-22T19:36:02.613Z,6.20
2018-04-22T19:38:31.062Z,4.60
2018-04-22T19:40:59.469Z,2.80
2018-04-22T19:43:27.873Z,4.37
2018-04-22T19:45:56.308Z,5.13
2018-04-22T19:48:24.721Z,3.20
2018-04-22T19:50:53.129Z,2.80
2018-04-22T19:53:21.589Z,3.70
2018-04-22T19:55:50.004Z,3.30
2018-04-22T19:58:18.404Z,3.03
2018-04-22T20:00:46.852Z,3.80
2018-04-22T20:03:15.255Z,4.57
2018-04-22T20:05:43.652Z,2.30
2018-04-22T20:08:12.117Z,3.00
2018-04-22T20:10:40.538Z,3.90
2018-04-22T20:13:08.943Z,3.83
2018-04-22T20:15:37.481Z,2.17
2018-04-22T20:18:05.886Z,3.93
2018-04-22T20:20:34.290Z,3.03
2018-04-22T20:23:02.740Z,4.17
2018-04-22T20:25:31.153Z,4.30
2018-04-22T20:27:59.567Z,3.60
2018-04-22T20:30:28.019Z,3.40
2018-04-22T20:32:56.433Z,4.10
2018-04-22T20:35:24.840Z,4.77
2018-04-22T20:37:53.296Z,4.40
2018-04-22T20:40:21.710Z,5.00
2018-04-22T20:42:50.124Z,7.00
2018-04-22T20:45:18.576Z,4.77
2018-04-22T20:47:46.985Z,4.30
2018-04-22T20:50:15.404Z,3.33
2018-04-22T20:52:43.864Z,2.57
2018-04-22T20:55:12.284Z,3.45
2018-04-22T20:57:40.705Z,4.37
2018-04-22T21:00:09.158Z,5.70
2018-04-22T21:02:37.560Z,3.00
2018-04-22T21:05:05.980Z,5.20
2018-04-22T21:07:34.444Z,3.63
2018-04-22T21:10:02.871Z,7.35
2018-04-22T21:12:31.284Z,5.60
2018-04-22T21:14:59.742Z,4.40
2018-04-22T21:17:28.156Z,4.03
2018-04-22T21:19:56.573Z,5.37
2018-04-22T21:22:25.024Z,6.15
2018-04-22T21:24:53.439Z,8.23
2018-04-22T21:27:21.857Z,5.63
2018-04-22T21:29:50.315Z,5.20
2018-04-22T21:32:18.726Z,3.73
2018-04-22T21:34:47.137Z,6.10
2018-04-22T21:37:15.615Z,4.07
2018-04-22T21:39:44.032Z,5.65
2018-04-22T21:42:12.432Z,6.40
2018-04-22T21:44:40.877Z,5.00
2018-04-22T21:47:09.299Z,7.17
2018-04-22T21:49:37.718Z,6.57
2018-04-22T21:52:06.184Z,5.10
2018-04-22T21:54:34.592Z,5.43
2018-04-22T21:57:03.000Z,5.50
2018-04-22T21:59:31.455Z,3.20
2018-04-22T22:01:59.847Z,4.95
2018-04-22T22:04:28.304Z,6.20
2018-04-22T22:06:56.736Z,8.15
2018-04-22T22:09:25.202Z,5.63
2018-04-22T22:11:53.605Z,6.27
2018-04-22T22:14:22.053Z,6.00
2018-04-22T22:16:50.458Z,4.13
2018-04-22T22:19:18.900Z,7.63
2018-04-22T22:21:47.348Z,4.17
2018-04-22T22:24:15.747Z,7.33
2018-04-22T22:26:44.144Z,8.17
2018-04-22T22:29:12.594Z,6.67
2018-04-22T22:31:41.004Z,7.63
2018-04-22T22:34:09.412Z,4.20
2018-04-22T22:36:37.856Z,5.60
2018-04-22T22:39:06.298Z,8.43
2018-04-22T22:41:34.717Z,7.60
2018-04-22T22:44:03.165Z,7.23
2018-04-22T22:46:31.591Z,5.17
2018-04-22T22:49:00.004Z,5.87
2018-04-22T22:51:28.454Z,7.57
2018-04-22T22:53:56.866Z,6.43
2018-04-22T22:56:25.285Z,5.73
2018-04-22T22:58:53.732Z,4.00
2018-04-22T23:01:22.136Z,6.63
2018-04-22T23:03:50.544Z,5.37
2018-04-22T23:06:18.987Z,6.77
2018-04-22T23:08:47.388Z,6.73
2018-04-22T23:11:15.804Z,5.87
2018-04-22T23:13:44.251Z,8.50
2018-04-22T23:16:12.661Z,6.20
2018-04-22T23:18:41.064Z,6.67
2018-04-22T23:21:09.514Z,6.17
2018-04-22T23:23:37.917Z,5.33
2018-04-22T23:26:06.323Z,6.33
2018-04-22T23:28:34.768Z,4.10
2018-04-22T23:31:03.171Z,7.40
2018-04-22T23:33:31.576Z,5.60
2018-04-22T23:36:00.025Z,8.75
2018-04-22T23:38:28.433Z,6.63
2018-04-22T23:40:56.841Z,7.20
2018-04-22T23:43:25.296Z,6.60
2018-04-22T23:45:53.709Z,7.23
2018-04-22T23:48:22.124Z,8.40
2018-04-22T23:50:50.571Z,8.03
2018-04-22T23:53:18.988Z,8.10
2018-04-22T23:55:47.394Z,5.93
2018-04-22T23:58:15.840Z,6.80
